sensor_id;sensor_type;location;lat;lon;timestamp;pressure;altitude;pressure_sealevel;temperature;humidity
22872;BME280;11603;44.910;8.630;2023-04-09T00:00:29;100824.22;;;12.30;100.00
22872;BME280;11603;44.910;8.630;2023-04-09T00:06:59;100825.66;;;12.36;100.00
22872;BME280;11603;44.910;8.630;2023-04-09T00:09:24;100834.72;;;12.47;100.00
22872;BME280;11603;44.910;8.630;2023-04-09T00:11:50;100830.47;;;12.57;100.00
22872;BME280;11603;44.910;8.630;2023-04-09T00:14:16;100828.03;;;12.67;100.00
22872;BME280;11603;44.910;8.630;2023-04-09T00:16:41;100842.84;;;12.72;100.00
22872;BME280;11603;44.910;8.630;2023-04-09T00:19:15;100833.31;;;12.68;100.00
22872;BME280;11603;44.910;8.630;2023-04-09T00:24:32;100838.56;;;12.70;100.00
22872;BME280;11603;44.910;8.630;2023-04-09T00:26:57;100838.16;;;12.76;100.00
22872;BME280;11603;44.910;8.630;2023-04-09T00:29:25;100845.91;;;12.81;100.00
22872;BME280;11603;44.910;8.630;2023-04-09T00:32:23;100844.91;;;12.69;100.00
22872;BME280;11603;44.910;8.630;2023-04-09T00:34:52;100847.44;;;12.58;100.00
22872;BME280;11603;44.910;8.630;2023-04-09T00:37:18;100850.88;;;12.60;100.00
22872;BME280;11603;44.910;8.630;2023-04-09T00:39:43;100856.59;;;12.68;100.00
22872;BME280;11603;44.910;8.630;2023-04-09T00:42:20;100852.19;;;12.67;100.00
22872;BME280;11603;44.910;8.630;2023-04-09T00:44:52;100856.59;;;12.68;100.00
22872;BME280;11603;44.910;8.630;2023-04-09T00:47:20;100850.03;;;12.72;100.00
22872;BME280;11603;44.910;8.630;2023-04-09T00:50:31;100857.44;;;12.68;100.00
22872;BME280;11603;44.910;8.630;2023-04-09T00:53:20;100861.41;;;12.63;100.00
22872;BME280;11603;44.910;8.630;2023-04-09T00:56:23;100862.19;;;12.65;100.00
22872;BME280;11603;44.910;8.630;2023-04-09T00:59:05;100859.25;;;12.55;100.00
22872;BME280;11603;44.910;8.630;2023-04-09T01:01:31;100856.09;;;12.49;100.00
22872;BME280;11603;44.910;8.630;2023-04-09T01:03:58;100855.69;;;12.55;100.00
22872;BME280;11603;44.910;8.630;2023-04-09T01:06:37;100860.84;;;12.58;100.00
22872;BME280;11603;44.910;8.630;2023-04-09T01:09:53;100867.59;;;12.51;100.00
22872;BME280;11603;44.910;8.630;2023-04-09T01:12:32;100862.97;;;12.53;100.00
22872;BME280;11603;44.910;8.630;2023-04-09T01:15:43;100861.38;;;12.50;100.00
22872;BME280;11603;44.910;8.630;2023-04-09T01:18:56;100863.94;;;12.52;100.00
22872;BME280;11603;44.910;8.630;2023-04-09T01:25:02;100859.09;;;12.44;100.00
22872;BME280;11603;44.910;8.630;2023-04-09T01:30:28;100861.84;;;12.43;100.00
22872;BME280;11603;44.910;8.630;2023-04-09T01:32:55;100859.25;;;12.41;100.00
22872;BME280;11603;44.910;8.630;2023-04-09T01:35:24;100868.56;;;12.36;100.00
22872;BME280;11603;44.910;8.630;2023-04-09T01:37:59;100874.44;;;12.28;100.00
22872;BME280;11603;44.910;8.630;2023-04-09T01:40:48;100873.31;;;12.04;100.00
22872;BME280;11603;44.910;8.630;2023-04-09T01:43:45;100871.34;;;12.07;100.00
22872;BME280;11603;44.910;8.630;2023-04-09T01:46:11;100861.16;;;12.12;100.00
22872;BME280;11603;44.910;8.630;2023-04-09T01:48:38;100863.66;;;12.01;100.00
22872;BME280;11603;44.910;8.630;2023-04-09T01:51:12;100863.47;;;12.04;100.00
22872;BME280;11603;44.910;8.630;2023-04-09T01:53:53;100860.91;;;12.03;100.00
22872;BME280;11603;44.910;8.630;2023-04-09T01:56:38;100859.78;;;11.93;100.00
22872;BME280;11603;44.910;8.630;2023-04-09T01:59:40;100867.78;;;11.78;100.00
22872;BME280;11603;44.910;8.630;2023-04-09T02:05:23;100871.63;;;11.88;100.00
22872;BME280;11603;44.910;8.630;2023-04-09T02:07:55;100878.44;;;11.80;100.00
22872;BME280;11603;44.910;8.630;2023-04-09T02:10:26;100890.47;;;11.73;100.00
22872;BME280;11603;44.910;8.630;2023-04-09T02:13:09;100888.66;;;11.73;100.00
22872;BME280;11603;44.910;8.630;2023-04-09T02:15:58;100889.72;;;11.85;100.00
22872;BME280;11603;44.910;8.630;2023-04-09T02:18:27;100885.72;;;11.92;100.00
22872;BME280;11603;44.910;8.630;2023-04-09T02:21:02;100890.88;;;11.95;100.00
22872;BME280;11603;44.910;8.630;2023-04-09T02:23:31;100902.97;;;11.72;100.00
22872;BME280;11603;44.910;8.630;2023-04-09T02:25:57;100903.25;;;11.54;100.00
22872;BME280;11603;44.910;8.630;2023-04-09T02:28:24;100904.41;;;11.64;100.00
22872;BME280;11603;44.910;8.630;2023-04-09T02:30:50;100904.25;;;11.67;100.00
22872;BME280;11603;44.910;8.630;2023-04-09T02:33:18;100898.03;;;11.66;100.00
22872;BME280;11603;44.910;8.630;2023-04-09T02:36:21;100891.34;;;11.73;100.00
22872;BME280;11603;44.910;8.630;2023-04-09T02:38:55;100895.47;;;11.79;100.00
22872;BME280;11603;44.910;8.630;2023-04-09T02:41:36;100900.53;;;11.83;100.00
22872;BME280;11603;44.910;8.630;2023-04-09T02:44:44;100896.63;;;11.75;100.00
22872;BME280;11603;44.910;8.630;2023-04-09T02:57:47;100913.91;;;11.55;100.00
22872;BME280;11603;44.910;8.630;2023-04-09T03:00:13;100912.53;;;11.62;100.00
22872;BME280;11603;44.910;8.630;2023-04-09T03:02:53;100915.91;;;11.66;100.00
22872;BME280;11603;44.910;8.630;2023-04-09T03:05:19;100915.06;;;11.65;100.00
22872;BME280;11603;44.910;8.630;2023-04-09T03:11:10;100920.88;;;11.58;100.00
22872;BME280;11603;44.910;8.630;2023-04-09T03:13:51;100906.22;;;11.49;100.00
22872;BME280;11603;44.910;8.630;2023-04-09T03:21:10;100902.47;;;11.52;100.00
22872;BME280;11603;44.910;8.630;2023-04-09T03:23:50;100914.94;;;11.53;100.00
22872;BME280;11603;44.910;8.630;2023-04-09T03:26:47;100916.94;;;11.49;100.00
22872;BME280;11603;44.910;8.630;2023-04-09T03:30:06;100922.00;;;11.54;100.00
22872;BME280;11603;44.910;8.630;2023-04-09T03:32:23;100917.25;;;11.59;100.00
22872;BME280;11603;44.910;8.630;2023-04-09T03:35:08;100922.22;;;11.51;100.00
22872;BME280;11603;44.910;8.630;2023-04-09T03:37:59;100924.41;;;11.58;100.00
22872;BME280;11603;44.910;8.630;2023-04-09T03:40:24;100928.53;;;11.64;100.00
22872;BME280;11603;44.910;8.630;2023-04-09T03:43:05;100918.69;;;11.64;100.00
22872;BME280;11603;44.910;8.630;2023-04-09T03:48:39;100918.38;;;11.55;100.00
22872;BME280;11603;44.910;8.630;2023-04-09T03:51:26;100921.72;;;11.58;100.00
22872;BME280;11603;44.910;8.630;2023-04-09T03:54:02;100917.03;;;11.47;100.00
22872;BME280;11603;44.910;8.630;2023-04-09T03:57:00;100923.34;;;11.17;100.00
22872;BME280;11603;44.910;8.630;2023-04-09T04:00:39;100928.16;;;11.26;100.00
22872;BME280;11603;44.910;8.630;2023-04-09T04:06:58;100937.06;;;11.26;100.00
22872;BME280;11603;44.910;8.630;2023-04-09T04:09:33;100939.00;;;11.24;100.00
22872;BME280;11603;44.910;8.630;2023-04-09T04:12:07;100941.19;;;11.02;100.00
22872;BME280;11603;44.910;8.630;2023-04-09T04:18:39;100938.72;;;10.99;100.00
22872;BME280;11603;44.910;8.630;2023-04-09T04:21:29;100946.81;;;10.97;100.00
22872;BME280;11603;44.910;8.630;2023-04-09T04:23:59;100948.03;;;10.92;100.00
22872;BME280;11603;44.910;8.630;2023-04-09T04:26:31;100951.84;;;10.88;100.00
22872;BME280;11603;44.910;8.630;2023-04-09T04:28:57;100952.13;;;10.83;100.00
22872;BME280;11603;44.910;8.630;2023-04-09T04:35:35;100962.44;;;10.89;100.00
22872;BME280;11603;44.910;8.630;2023-04-09T04:38:17;100967.38;;;10.97;100.00
22872;BME280;11603;44.910;8.630;2023-04-09T04:45:03;100970.84;;;10.83;100.00
22872;BME280;11603;44.910;8.630;2023-04-09T04:51:46;100974.28;;;10.70;100.00
22872;BME280;11603;44.910;8.630;2023-04-09T04:54:42;100976.44;;;10.79;100.00
22872;BME280;11603;44.910;8.630;2023-04-09T04:57:39;100969.81;;;10.70;100.00
22872;BME280;11603;44.910;8.630;2023-04-09T05:00:13;100976.53;;;10.61;100.00
22872;BME280;11603;44.910;8.630;2023-04-09T05:02:39;100970.47;;;10.58;100.00
22872;BME280;11603;44.910;8.630;2023-04-09T05:05:31;100974.97;;;10.57;100.00
22872;BME280;11603;44.910;8.630;2023-04-09T05:12:10;100982.16;;;10.57;100.00
22872;BME280;11603;44.910;8.630;2023-04-09T05:15:02;100991.72;;;10.61;100.00
22872;BME280;11603;44.910;8.630;2023-04-09T05:17:48;100995.34;;;10.60;100.00
22872;BME280;11603;44.910;8.630;2023-04-09T05:20:27;100996.75;;;10.67;100.00
22872;BME280;11603;44.910;8.630;2023-04-09T05:26:07;100991.53;;;10.80;100.00
22872;BME280;11603;44.910;8.630;2023-04-09T05:28:55;101000.16;;;10.85;100.00
22872;BME280;11603;44.910;8.630;2023-04-09T05:31:37;100998.03;;;10.76;100.00
22872;BME280;11603;44.910;8.630;2023-04-09T05:34:54;100998.81;;;10.78;100.00
22872;BME280;11603;44.910;8.630;2023-04-09T05:37:58;101004.50;;;10.87;100.00
22872;BME280;11603;44.910;8.630;2023-04-09T05:40:23;101010.59;;;11.05;100.00
22872;BME280;11603;44.910;8.630;2023-04-09T05:42:51;101015.84;;;11.22;100.00
22872;BME280;11603;44.910;8.630;2023-04-09T05:45:51;101014.84;;;11.25;100.00
22872;BME280;11603;44.910;8.630;2023-04-09T05:48:16;101013.69;;;11.29;100.00
22872;BME280;11603;44.910;8.630;2023-04-09T05:50:53;101016.44;;;11.27;100.00
22872;BME280;11603;44.910;8.630;2023-04-09T05:53:19;101018.78;;;11.33;100.00
22872;BME280;11603;44.910;8.630;2023-04-09T05:56:52;101021.81;;;11.27;100.00
22872;BME280;11603;44.910;8.630;2023-04-09T06:02:43;101025.03;;;11.48;100.00
22872;BME280;11603;44.910;8.630;2023-04-09T06:08:28;101040.19;;;11.33;100.00
22872;BME280;11603;44.910;8.630;2023-04-09T06:11:08;101039.94;;;11.38;100.00
22872;BME280;11603;44.910;8.630;2023-04-09T06:13:43;101041.16;;;11.32;100.00
22872;BME280;11603;44.910;8.630;2023-04-09T06:16:35;101049.16;;;11.48;100.00
22872;BME280;11603;44.910;8.630;2023-04-09T06:19:09;101036.03;;;11.43;100.00
22872;BME280;11603;44.910;8.630;2023-04-09T06:22:16;101043.06;;;11.30;100.00
22872;BME280;11603;44.910;8.630;2023-04-09T06:25:16;101040.88;;;11.37;100.00
22872;BME280;11603;44.910;8.630;2023-04-09T06:27:42;101041.06;;;11.34;100.00
22872;BME280;11603;44.910;8.630;2023-04-09T06:30:18;101045.56;;;11.33;100.00
22872;BME280;11603;44.910;8.630;2023-04-09T06:32:54;101043.66;;;11.35;100.00
22872;BME280;11603;44.910;8.630;2023-04-09T06:35:34;101051.72;;;11.04;100.00
22872;BME280;11603;44.910;8.630;2023-04-09T06:38:21;101051.53;;;10.91;100.00
22872;BME280;11603;44.910;8.630;2023-04-09T06:40:58;101057.69;;;11.09;100.00
22872;BME280;11603;44.910;8.630;2023-04-09T06:43:37;101056.91;;;11.07;100.00
22872;BME280;11603;44.910;8.630;2023-04-09T06:46:53;101054.81;;;10.96;100.00
22872;BME280;11603;44.910;8.630;2023-04-09T06:49:21;101054.56;;;11.01;100.00
22872;BME280;11603;44.910;8.630;2023-04-09T06:51:50;101062.44;;;11.20;100.00
22872;BME280;11603;44.910;8.630;2023-04-09T06:54:20;101066.03;;;11.34;100.00
22872;BME280;11603;44.910;8.630;2023-04-09T06:56:45;101066.28;;;11.45;100.00
22872;BME280;11603;44.910;8.630;2023-04-09T06:59:13;101064.69;;;11.57;100.00
22872;BME280;11603;44.910;8.630;2023-04-09T07:01:44;101073.81;;;11.69;100.00
22872;BME280;11603;44.910;8.630;2023-04-09T07:04:20;101071.06;;;11.70;100.00
22872;BME280;11603;44.910;8.630;2023-04-09T07:06:45;101078.41;;;11.82;100.00
22872;BME280;11603;44.910;8.630;2023-04-09T07:09:25;101073.53;;;11.89;100.00
22872;BME280;11603;44.910;8.630;2023-04-09T07:12:34;101083.81;;;12.11;100.00
22872;BME280;11603;44.910;8.630;2023-04-09T07:15:01;101078.53;;;12.09;100.00
22872;BME280;11603;44.910;8.630;2023-04-09T07:17:31;101078.22;;;11.85;100.00
22872;BME280;11603;44.910;8.630;2023-04-09T07:21:02;101077.44;;;11.83;100.00
22872;BME280;11603;44.910;8.630;2023-04-09T07:23:36;101087.25;;;11.99;100.00
22872;BME280;11603;44.910;8.630;2023-04-09T07:26:03;101085.31;;;11.86;100.00
22872;BME280;11603;44.910;8.630;2023-04-09T07:28:34;101091.72;;;12.14;100.00
22872;BME280;11603;44.910;8.630;2023-04-09T07:31:08;101088.53;;;12.21;100.00
22872;BME280;11603;44.910;8.630;2023-04-09T07:33:53;101091.63;;;12.29;100.00
22872;BME280;11603;44.910;8.630;2023-04-09T07:36:19;101085.41;;;12.57;100.00
22872;BME280;11603;44.910;8.630;2023-04-09T07:38:44;101094.41;;;12.56;100.00
22872;BME280;11603;44.910;8.630;2023-04-09T07:41:19;101096.16;;;12.71;100.00
22872;BME280;11603;44.910;8.630;2023-04-09T07:44:03;101095.47;;;12.96;100.00
22872;BME280;11603;44.910;8.630;2023-04-09T07:46:32;101103.97;;;12.89;100.00
22872;BME280;11603;44.910;8.630;2023-04-09T07:49:05;101099.28;;;12.78;100.00
22872;BME280;11603;44.910;8.630;2023-04-09T07:51:37;101095.28;;;12.57;100.00
22872;BME280;11603;44.910;8.630;2023-04-09T07:54:08;101099.31;;;12.64;100.00
22872;BME280;11603;44.910;8.630;2023-04-09T07:57:08;101097.84;;;12.72;100.00
22872;BME280;11603;44.910;8.630;2023-04-09T07:59:46;101098.31;;;12.93;100.00
22872;BME280;11603;44.910;8.630;2023-04-09T08:02:23;101097.94;;;12.99;100.00
22872;BME280;11603;44.910;8.630;2023-04-09T08:04:49;101104.09;;;13.01;100.00
22872;BME280;11603;44.910;8.630;2023-04-09T08:07:23;101106.59;;;13.19;100.00
22872;BME280;11603;44.910;8.630;2023-04-09T08:09:58;101113.56;;;13.07;100.00
22872;BME280;11603;44.910;8.630;2023-04-09T08:13:09;101113.38;;;12.67;100.00
22872;BME280;11603;44.910;8.630;2023-04-09T08:15:37;101115.59;;;12.89;100.00
22872;BME280;11603;44.910;8.630;2023-04-09T08:18:11;101115.81;;;12.86;100.00
22872;BME280;11603;44.910;8.630;2023-04-09T08:20:37;101117.59;;;13.00;100.00
22872;BME280;11603;44.910;8.630;2023-04-09T08:23:09;101120.19;;;13.15;100.00
22872;BME280;11603;44.910;8.630;2023-04-09T08:25:34;101121.94;;;13.02;100.00
22872;BME280;11603;44.910;8.630;2023-04-09T08:31:43;101125.25;;;13.20;100.00
22872;BME280;11603;44.910;8.630;2023-04-09T08:34:24;101131.28;;;13.38;100.00
22872;BME280;11603;44.910;8.630;2023-04-09T08:37:25;101134.88;;;13.51;100.00
22872;BME280;11603;44.910;8.630;2023-04-09T08:40:06;101134.06;;;13.36;100.00
22872;BME280;11603;44.910;8.630;2023-04-09T08:42:58;101136.84;;;13.35;100.00
22872;BME280;11603;44.910;8.630;2023-04-09T08:45:25;101132.44;;;13.34;100.00
22872;BME280;11603;44.910;8.630;2023-04-09T08:47:51;101138.19;;;13.69;100.00
22872;BME280;11603;44.910;8.630;2023-04-09T08:50:35;101135.72;;;13.66;100.00
22872;BME280;11603;44.910;8.630;2023-04-09T08:53:20;101130.28;;;13.53;100.00
22872;BME280;11603;44.910;8.630;2023-04-09T08:56:33;101140.09;;;13.40;100.00
22872;BME280;11603;44.910;8.630;2023-04-09T09:01:35;101133.88;;;13.39;100.00
22872;BME280;11603;44.910;8.630;2023-04-09T09:04:06;101127.91;;;13.48;100.00
22872;BME280;11603;44.910;8.630;2023-04-09T09:06:52;101121.13;;;13.82;100.00
22872;BME280;11603;44.910;8.630;2023-04-09T09:09:53;101123.00;;;13.94;100.00
22872;BME280;11603;44.910;8.630;2023-04-09T09:12:42;101120.72;;;14.28;100.00
22872;BME280;11603;44.910;8.630;2023-04-09T09:15:30;101120.28;;;14.34;100.00
22872;BME280;11603;44.910;8.630;2023-04-09T09:17:57;101115.75;;;14.22;100.00
22872;BME280;11603;44.910;8.630;2023-04-09T09:20:26;101116.22;;;14.41;100.00
22872;BME280;11603;44.910;8.630;2023-04-09T09:22:57;101112.88;;;14.50;100.00
22872;BME280;11603;44.910;8.630;2023-04-09T09:25:25;101111.38;;;14.46;100.00
22872;BME280;11603;44.910;8.630;2023-04-09T09:27:52;101111.16;;;14.62;100.00
22872;BME280;11603;44.910;8.630;2023-04-09T09:30:38;101105.25;;;14.69;100.00
22872;BME280;11603;44.910;8.630;2023-04-09T09:33:11;101107.69;;;14.72;100.00
22872;BME280;11603;44.910;8.630;2023-04-09T09:35:53;101106.59;;;15.00;100.00
22872;BME280;11603;44.910;8.630;2023-04-09T09:38:21;101105.81;;;15.11;100.00
22872;BME280;11603;44.910;8.630;2023-04-09T09:40:48;101098.03;;;15.19;100.00
22872;BME280;11603;44.910;8.630;2023-04-09T09:43:44;101096.72;;;15.24;100.00
22872;BME280;11603;44.910;8.630;2023-04-09T09:46:14;101093.75;;;15.40;100.00
22872;BME280;11603;44.910;8.630;2023-04-09T09:49:22;101090.44;;;15.60;100.00
22872;BME280;11603;44.910;8.630;2023-04-09T09:51:58;101091.38;;;15.72;100.00
22872;BME280;11603;44.910;8.630;2023-04-09T09:54:32;101093.66;;;15.89;100.00
22872;BME280;11603;44.910;8.630;2023-04-09T09:57:11;101084.50;;;16.03;100.00
22872;BME280;11603;44.910;8.630;2023-04-09T09:59:57;101080.09;;;16.13;100.00
22872;BME280;11603;44.910;8.630;2023-04-09T10:03:36;101082.84;;;16.24;100.00
22872;BME280;11603;44.910;8.630;2023-04-09T10:06:03;101088.50;;;16.43;100.00
22872;BME280;11603;44.910;8.630;2023-04-09T10:08:57;101073.97;;;16.68;100.00
22872;BME280;11603;44.910;8.630;2023-04-09T10:11:49;101074.09;;;16.78;100.00
22872;BME280;11603;44.910;8.630;2023-04-09T10:14:28;101072.34;;;16.88;100.00
22872;BME280;11603;44.910;8.630;2023-04-09T10:20:28;101061.53;;;17.10;100.00
22872;BME280;11603;44.910;8.630;2023-04-09T10:26:19;101049.97;;;17.08;100.00
22872;BME280;11603;44.910;8.630;2023-04-09T10:32:52;101041.34;;;17.57;100.00
22872;BME280;11603;44.910;8.630;2023-04-09T10:35:27;101038.75;;;17.67;100.00
22872;BME280;11603;44.910;8.630;2023-04-09T10:37:53;101038.09;;;17.74;100.00
22872;BME280;11603;44.910;8.630;2023-04-09T10:44:05;101034.00;;;17.80;100.00
22872;BME280;11603;44.910;8.630;2023-04-09T10:46:47;101033.44;;;17.97;100.00
22872;BME280;11603;44.910;8.630;2023-04-09T10:49:23;101034.41;;;17.96;100.00
22872;BME280;11603;44.910;8.630;2023-04-09T10:52:17;101025.84;;;17.91;100.00
22872;BME280;11603;44.910;8.630;2023-04-09T10:55:00;101024.28;;;17.89;100.00
22872;BME280;11603;44.910;8.630;2023-04-09T10:57:28;101017.31;;;17.96;100.00
22872;BME280;11603;44.910;8.630;2023-04-09T10:59:56;101018.44;;;17.72;100.00
22872;BME280;11603;44.910;8.630;2023-04-09T11:08:05;101011.97;;;18.26;96.95
22872;BME280;11603;44.910;8.630;2023-04-09T11:13:23;100991.38;;;18.14;92.67
22872;BME280;11603;44.910;8.630;2023-04-09T11:16:23;100993.25;;;18.23;87.58
22872;BME280;11603;44.910;8.630;2023-04-09T11:18:51;100996.28;;;18.30;88.98
22872;BME280;11603;44.910;8.630;2023-04-09T11:25:19;101002.44;;;18.32;92.83
22872;BME280;11603;44.910;8.630;2023-04-09T11:28:29;100994.91;;;18.35;89.48
22872;BME280;11603;44.910;8.630;2023-04-09T11:31:04;100998.16;;;18.59;87.81
22872;BME280;11603;44.910;8.630;2023-04-09T11:34:26;100983.09;;;18.76;84.23
22872;BME280;11603;44.910;8.630;2023-04-09T11:40:31;100977.88;;;18.94;83.37
22872;BME280;11603;44.910;8.630;2023-04-09T11:43:26;100974.63;;;19.19;82.78
22872;BME280;11603;44.910;8.630;2023-04-09T11:46:01;100984.44;;;19.01;83.95
22872;BME280;11603;44.910;8.630;2023-04-09T11:53:20;100977.06;;;19.22;80.11
22872;BME280;11603;44.910;8.630;2023-04-09T11:57:16;100968.25;;;19.49;73.99
22872;BME280;11603;44.910;8.630;2023-04-09T12:04:01;100961.69;;;19.52;76.03
22872;BME280;11603;44.910;8.630;2023-04-09T12:18:11;100945.31;;;20.09;70.28
22872;BME280;11603;44.910;8.630;2023-04-09T12:20:42;100943.63;;;19.89;64.85
22872;BME280;11603;44.910;8.630;2023-04-09T12:23:22;100943.88;;;19.96;65.14
22872;BME280;11603;44.910;8.630;2023-04-09T12:29:42;100937.84;;;19.55;64.74
22872;BME280;11603;44.910;8.630;2023-04-09T12:32:13;100932.94;;;19.78;63.60
22872;BME280;11603;44.910;8.630;2023-04-09T12:35:06;100929.09;;;19.71;63.35
22872;BME280;11603;44.910;8.630;2023-04-09T12:38:08;100935.94;;;19.75;64.30
22872;BME280;11603;44.910;8.630;2023-04-09T12:40:46;100932.75;;;19.89;63.09
22872;BME280;11603;44.910;8.630;2023-04-09T12:43:38;100922.06;;;20.34;62.41
22872;BME280;11603;44.910;8.630;2023-04-09T12:46:59;100921.88;;;20.45;58.72
22872;BME280;11603;44.910;8.630;2023-04-09T12:53:16;100917.59;;;20.43;58.83
22872;BME280;11603;44.910;8.630;2023-04-09T12:56:22;100918.69;;;20.50;56.96
22872;BME280;11603;44.910;8.630;2023-04-09T12:59:01;100914.06;;;20.60;56.95
22872;BME280;11603;44.910;8.630;2023-04-09T13:01:26;100916.97;;;20.49;56.64
22872;BME280;11603;44.910;8.630;2023-04-09T13:04:21;100911.53;;;20.49;56.33
22872;BME280;11603;44.910;8.630;2023-04-09T13:07:18;100899.28;;;20.45;54.29
22872;BME280;11603;44.910;8.630;2023-04-09T13:13:19;100889.19;;;20.55;52.82
22872;BME280;11603;44.910;8.630;2023-04-09T13:16:23;100893.84;;;20.62;56.41
22872;BME280;11603;44.910;8.630;2023-04-09T13:19:12;100886.09;;;20.67;56.57
22872;BME280;11603;44.910;8.630;2023-04-09T13:25:21;100877.91;;;20.77;54.09
22872;BME280;11603;44.910;8.630;2023-04-09T13:27:47;100875.34;;;20.76;53.70
22872;BME280;11603;44.910;8.630;2023-04-09T13:30:13;100860.56;;;20.78;54.19
22872;BME280;11603;44.910;8.630;2023-04-09T13:32:38;100862.16;;;21.16;53.49
22872;BME280;11603;44.910;8.630;2023-04-09T13:35:05;100870.47;;;21.14;50.46
22872;BME280;11603;44.910;8.630;2023-04-09T13:41:11;100857.56;;;21.17;51.54
22872;BME280;11603;44.910;8.630;2023-04-09T13:43:44;100858.56;;;20.98;51.32
22872;BME280;11603;44.910;8.630;2023-04-09T13:46:13;100855.00;;;20.97;50.13
22872;BME280;11603;44.910;8.630;2023-04-09T13:49:03;100853.50;;;20.85;48.75
22872;BME280;11603;44.910;8.630;2023-04-09T13:52:20;100846.97;;;20.96;49.30
22872;BME280;11603;44.910;8.630;2023-04-09T13:54:58;100826.38;;;21.11;50.62
22872;BME280;11603;44.910;8.630;2023-04-09T13:57:23;100830.09;;;21.10;51.91
22872;BME280;11603;44.910;8.630;2023-04-09T14:00:26;100825.22;;;21.13;51.39
22872;BME280;11603;44.910;8.630;2023-04-09T14:03:21;100820.41;;;20.90;51.19
22872;BME280;11603;44.910;8.630;2023-04-09T14:05:59;100822.75;;;20.67;51.17
22872;BME280;11603;44.910;8.630;2023-04-09T14:08:44;100812.88;;;20.66;51.55
22872;BME280;11603;44.910;8.630;2023-04-09T14:11:22;100813.03;;;20.64;51.43
22872;BME280;11603;44.910;8.630;2023-04-09T14:14:01;100809.53;;;20.54;50.97
22872;BME280;11603;44.910;8.630;2023-04-09T14:17:17;100806.50;;;20.75;49.88
22872;BME280;11603;44.910;8.630;2023-04-09T14:19:42;100803.00;;;20.83;50.09
22872;BME280;11603;44.910;8.630;2023-04-09T14:22:31;100796.72;;;20.82;49.72
22872;BME280;11603;44.910;8.630;2023-04-09T14:25:31;100807.19;;;20.59;49.56
22872;BME280;11603;44.910;8.630;2023-04-09T14:28:02;100802.25;;;20.73;49.07
22872;BME280;11603;44.910;8.630;2023-04-09T14:30:48;100804.97;;;20.73;48.80
22872;BME280;11603;44.910;8.630;2023-04-09T14:33:14;100795.31;;;20.78;49.41
22872;BME280;11603;44.910;8.630;2023-04-09T14:35:49;100791.31;;;20.37;47.50
22872;BME280;11603;44.910;8.630;2023-04-09T14:41:21;100792.59;;;20.60;48.10
22872;BME280;11603;44.910;8.630;2023-04-09T14:43:55;100793.13;;;20.64;47.63
22872;BME280;11603;44.910;8.630;2023-04-09T14:49:35;100785.38;;;20.69;45.19
22872;BME280;11603;44.910;8.630;2023-04-09T14:55:29;100778.25;;;21.11;43.34
22872;BME280;11603;44.910;8.630;2023-04-09T14:58:05;100778.63;;;21.34;44.23
22872;BME280;11603;44.910;8.630;2023-04-09T15:01:04;100780.91;;;21.21;46.38
22872;BME280;11603;44.910;8.630;2023-04-09T15:03:33;100778.34;;;21.02;45.79
22872;BME280;11603;44.910;8.630;2023-04-09T15:06:12;100771.22;;;21.19;45.29
22872;BME280;11603;44.910;8.630;2023-04-09T15:08:48;100783.19;;;20.90;45.49
22872;BME280;11603;44.910;8.630;2023-04-09T15:11:34;100774.50;;;20.87;45.70
22872;BME280;11603;44.910;8.630;2023-04-09T15:14:02;100774.50;;;20.87;46.18
22872;BME280;11603;44.910;8.630;2023-04-09T15:16:27;100761.03;;;20.85;45.69
22872;BME280;11603;44.910;8.630;2023-04-09T15:19:22;100765.63;;;20.85;45.13
22872;BME280;11603;44.910;8.630;2023-04-09T15:21:48;100765.84;;;20.91;45.17
22872;BME280;11603;44.910;8.630;2023-04-09T15:24:14;100765.16;;;20.89;45.28
22872;BME280;11603;44.910;8.630;2023-04-09T15:26:49;100758.72;;;20.90;44.97
22872;BME280;11603;44.910;8.630;2023-04-09T15:29:14;100772.47;;;20.71;45.93
22872;BME280;11603;44.910;8.630;2023-04-09T15:31:51;100762.69;;;20.60;45.12
22872;BME280;11603;44.910;8.630;2023-04-09T15:34:36;100761.00;;;20.59;45.32
22872;BME280;11603;44.910;8.630;2023-04-09T15:37:01;100752.69;;;20.61;45.33
22872;BME280;11603;44.910;8.630;2023-04-09T15:39:27;100750.97;;;20.42;45.62
22872;BME280;11603;44.910;8.630;2023-04-09T15:42:00;100750.81;;;20.16;46.30
22872;BME280;11603;44.910;8.630;2023-04-09T15:44:32;100756.97;;;20.46;45.74
22872;BME280;11603;44.910;8.630;2023-04-09T15:46:57;100750.19;;;20.50;46.05
22872;BME280;11603;44.910;8.630;2023-04-09T15:49:23;100745.00;;;20.56;45.36
22872;BME280;11603;44.910;8.630;2023-04-09T15:51:48;100742.56;;;20.53;46.55
22872;BME280;11603;44.910;8.630;2023-04-09T15:54:14;100752.53;;;20.45;47.10
22872;BME280;11603;44.910;8.630;2023-04-09T15:56:39;100753.69;;;20.42;46.77
22872;BME280;11603;44.910;8.630;2023-04-09T15:59:07;100762.09;;;20.21;45.97
22872;BME280;11603;44.910;8.630;2023-04-09T16:01:34;100752.78;;;20.24;45.41
22872;BME280;11603;44.910;8.630;2023-04-09T16:04:01;100751.16;;;20.13;45.33
22872;BME280;11603;44.910;8.630;2023-04-09T16:06:29;100752.03;;;20.32;44.70
22872;BME280;11603;44.910;8.630;2023-04-09T16:08:55;100755.34;;;20.25;45.04
22872;BME280;11603;44.910;8.630;2023-04-09T16:11:48;100753.66;;;19.97;45.20
22872;BME280;11603;44.910;8.630;2023-04-09T16:14:29;100749.28;;;19.86;45.68
22872;BME280;11603;44.910;8.630;2023-04-09T16:16:57;100757.38;;;19.96;46.08
22872;BME280;11603;44.910;8.630;2023-04-09T16:19:22;100758.97;;;19.99;46.15
22872;BME280;11603;44.910;8.630;2023-04-09T16:22:16;100747.78;;;20.02;46.41